sensor_id;sensor_type;location;lat;lon;timestamp;P1;durP1;ratioP1;P2;durP2;ratioP2
28760;SDS011;15917;50.014;8.352;2022-12-18T00:02:16;71.40;;;22.17;;
28760;SDS011;15917;50.014;8.352;2022-12-18T00:04:42;68.43;;;22.17;;
28760;SDS011;15917;50.014;8.352;2022-12-18T00:07:08;69.88;;;22.10;;
28760;SDS011;15917;50.014;8.352;2022-12-18T00:09:33;77.53;;;22.00;;
28760;SDS011;15917;50.014;8.352;2022-12-18T00:11:59;65.07;;;22.27;;
28760;SDS011;15917;50.014;8.352;2022-12-18T00:14:24;57.10;;;20.25;;
28760;SDS011;15917;50.014;8.352;2022-12-18T00:16:50;60.55;;;20.67;;
28760;SDS011;15917;50.014;8.352;2022-12-18T00:19:16;68.75;;;22.50;;
28760;SDS011;15917;50.014;8.352;2022-12-18T00:21:42;67.07;;;20.38;;
28760;SDS011;15917;50.014;8.352;2022-12-18T00:24:09;79.47;;;22.07;;
28760;SDS011;15917;50.014;8.352;2022-12-18T00:26:35;64.40;;;21.88;;
28760;SDS011;15917;50.014;8.352;2022-12-18T00:29:03;61.70;;;20.85;;
28760;SDS011;15917;50.014;8.352;2022-12-18T00:31:35;68.28;;;21.42;;
28760;SDS011;15917;50.014;8.352;2022-12-18T00:34:02;68.57;;;22.50;;
28760;SDS011;15917;50.014;8.352;2022-12-18T00:36:29;62.97;;;20.25;;
28760;SDS011;15917;50.014;8.352;2022-12-18T00:38:57;64.95;;;21.73;;
28760;SDS011;15917;50.014;8.352;2022-12-18T00:41:24;66.13;;;20.90;;
28760;SDS011;15917;50.014;8.352;2022-12-18T00:44:09;65.47;;;20.02;;
28760;SDS011;15917;50.014;8.352;2022-12-18T00:46:37;59.13;;;19.35;;
28760;SDS011;15917;50.014;8.352;2022-12-18T00:49:03;57.58;;;20.30;;
28760;SDS011;15917;50.014;8.352;2022-12-18T00:51:29;59.28;;;20.30;;
28760;SDS011;15917;50.014;8.352;2022-12-18T00:53:54;58.25;;;20.63;;
28760;SDS011;15917;50.014;8.352;2022-12-18T00:56:22;61.92;;;21.48;;
28760;SDS011;15917;50.014;8.352;2022-12-18T00:58:48;66.13;;;21.50;;
28760;SDS011;15917;50.014;8.352;2022-12-18T01:01:14;64.25;;;21.08;;
28760;SDS011;15917;50.014;8.352;2022-12-18T01:03:40;66.18;;;19.48;;
28760;SDS011;15917;50.014;8.352;2022-12-18T01:06:07;62.67;;;18.73;;
28760;SDS011;15917;50.014;8.352;2022-12-18T01:08:33;58.78;;;20.67;;
28760;SDS011;15917;50.014;8.352;2022-12-18T01:10:59;67.50;;;21.23;;
28760;SDS011;15917;50.014;8.352;2022-12-18T01:13:26;59.58;;;21.33;;
28760;SDS011;15917;50.014;8.352;2022-12-18T01:15:52;67.88;;;20.05;;
28760;SDS011;15917;50.014;8.352;2022-12-18T01:18:18;70.38;;;22.02;;
28760;SDS011;15917;50.014;8.352;2022-12-18T01:20:43;67.88;;;21.05;;
28760;SDS011;15917;50.014;8.352;2022-12-18T01:23:09;64.38;;;21.95;;
28760;SDS011;15917;50.014;8.352;2022-12-18T01:25:38;65.05;;;20.33;;
28760;SDS011;15917;50.014;8.352;2022-12-18T01:28:04;67.18;;;20.52;;
28760;SDS011;15917;50.014;8.352;2022-12-18T01:30:31;54.95;;;19.38;;
28760;SDS011;15917;50.014;8.352;2022-12-18T01:32:56;55.33;;;18.80;;
28760;SDS011;15917;50.014;8.352;2022-12-18T01:35:22;59.28;;;19.13;;
28760;SDS011;15917;50.014;8.352;2022-12-18T01:37:48;60.40;;;18.13;;
28760;SDS011;15917;50.014;8.352;2022-12-18T01:40:13;48.47;;;17.73;;
28760;SDS011;15917;50.014;8.352;2022-12-18T01:42:39;53.75;;;18.02;;
28760;SDS011;15917;50.014;8.352;2022-12-18T01:50:15;60.10;;;20.15;;
28760;SDS011;15917;50.014;8.352;2022-12-18T01:52:42;60.35;;;18.80;;
28760;SDS011;15917;50.014;8.352;2022-12-18T01:55:10;44.13;;;17.27;;
28760;SDS011;15917;50.014;8.352;2022-12-18T01:57:37;51.60;;;17.35;;
28760;SDS011;15917;50.014;8.352;2022-12-18T02:00:05;49.80;;;16.48;;
28760;SDS011;15917;50.014;8.352;2022-12-18T02:02:39;48.00;;;16.70;;
28760;SDS011;15917;50.014;8.352;2022-12-18T02:07:41;43.78;;;14.07;;
28760;SDS011;15917;50.014;8.352;2022-12-18T02:10:33;41.40;;;15.05;;
28760;SDS011;15917;50.014;8.352;2022-12-18T02:14:10;43.67;;;15.23;;
28760;SDS011;15917;50.014;8.352;2022-12-18T02:16:21;46.80;;;15.90;;
28760;SDS011;15917;50.014;8.352;2022-12-18T02:18:56;40.38;;;14.23;;
28760;SDS011;15917;50.014;8.352;2022-12-18T02:26:55;40.92;;;13.20;;
28760;SDS011;15917;50.014;8.352;2022-12-18T02:29:29;40.35;;;14.13;;
28760;SDS011;15917;50.014;8.352;2022-12-18T02:32:10;41.85;;;13.88;;
28760;SDS011;15917;50.014;8.352;2022-12-18T02:34:40;42.17;;;13.75;;
28760;SDS011;15917;50.014;8.352;2022-12-18T02:37:13;35.85;;;14.45;;
28760;SDS011;15917;50.014;8.352;2022-12-18T02:39:42;39.85;;;13.48;;
28760;SDS011;15917;50.014;8.352;2022-12-18T02:42:12;37.63;;;12.60;;
28760;SDS011;15917;50.014;8.352;2022-12-18T02:44:45;42.75;;;13.32;;
28760;SDS011;15917;50.014;8.352;2022-12-18T02:47:16;39.90;;;13.85;;
28760;SDS011;15917;50.014;8.352;2022-12-18T02:52:24;38.58;;;15.00;;
28760;SDS011;15917;50.014;8.352;2022-12-18T02:58:17;45.55;;;15.27;;
28760;SDS011;15917;50.014;8.352;2022-12-18T03:07:05;43.75;;;14.40;;
28760;SDS011;15917;50.014;8.352;2022-12-18T03:09:37;42.47;;;15.32;;
28760;SDS011;15917;50.014;8.352;2022-12-18T03:12:09;36.08;;;14.98;;
28760;SDS011;15917;50.014;8.352;2022-12-18T03:14:55;46.10;;;15.18;;
28760;SDS011;15917;50.014;8.352;2022-12-18T03:17:31;45.95;;;16.17;;
28760;SDS011;15917;50.014;8.352;2022-12-18T03:20:00;55.30;;;15.77;;
28760;SDS011;15917;50.014;8.352;2022-12-18T03:22:34;37.63;;;14.15;;
28760;SDS011;15917;50.014;8.352;2022-12-18T03:25:03;44.38;;;16.70;;
28760;SDS011;15917;50.014;8.352;2022-12-18T03:27:35;42.38;;;16.13;;
28760;SDS011;15917;50.014;8.352;2022-12-18T03:30:10;45.35;;;16.35;;
28760;SDS011;15917;50.014;8.352;2022-12-18T03:32:39;38.92;;;16.13;;
28760;SDS011;15917;50.014;8.352;2022-12-18T03:35:16;43.83;;;15.35;;
28760;SDS011;15917;50.014;8.352;2022-12-18T03:37:46;38.42;;;15.02;;
28760;SDS011;15917;50.014;8.352;2022-12-18T03:40:12;42.78;;;15.75;;
28760;SDS011;15917;50.014;8.352;2022-12-18T03:42:59;45.65;;;15.80;;
28760;SDS011;15917;50.014;8.352;2022-12-18T03:45:36;47.92;;;15.57;;
28760;SDS011;15917;50.014;8.352;2022-12-18T03:50:46;37.25;;;15.15;;
28760;SDS011;15917;50.014;8.352;2022-12-18T03:53:38;49.08;;;16.85;;
28760;SDS011;15917;50.014;8.352;2022-12-18T03:56:22;58.10;;;17.17;;
28760;SDS011;15917;50.014;8.352;2022-12-18T03:58:52;43.88;;;16.17;;
28760;SDS011;15917;50.014;8.352;2022-12-18T04:01:23;50.08;;;16.98;;
28760;SDS011;15917;50.014;8.352;2022-12-18T04:03:56;49.97;;;17.77;;
28760;SDS011;15917;50.014;8.352;2022-12-18T04:06:25;46.40;;;17.80;;
28760;SDS011;15917;50.014;8.352;2022-12-18T04:08:52;41.42;;;17.05;;
28760;SDS011;15917;50.014;8.352;2022-12-18T04:11:21;47.83;;;16.48;;
28760;SDS011;15917;50.014;8.352;2022-12-18T04:13:47;44.88;;;16.95;;
28760;SDS011;15917;50.014;8.352;2022-12-18T04:16:18;60.88;;;19.30;;
28760;SDS011;15917;50.014;8.352;2022-12-18T04:18:45;56.77;;;18.63;;
28760;SDS011;15917;50.014;8.352;2022-12-18T04:21:12;45.33;;;18.20;;
28760;SDS011;15917;50.014;8.352;2022-12-18T04:23:38;54.05;;;19.20;;
28760;SDS011;15917;50.014;8.352;2022-12-18T04:26:04;50.90;;;18.38;;
28760;SDS011;15917;50.014;8.352;2022-12-18T04:29:01;39.20;;;15.98;;
28760;SDS011;15917;50.014;8.352;2022-12-18T04:31:28;50.10;;;17.55;;
28760;SDS011;15917;50.014;8.352;2022-12-18T04:33:54;44.33;;;17.83;;
28760;SDS011;15917;50.014;8.352;2022-12-18T04:36:21;44.95;;;18.33;;
28760;SDS011;15917;50.014;8.352;2022-12-18T04:38:46;50.55;;;17.65;;
28760;SDS011;15917;50.014;8.352;2022-12-18T04:41:14;52.92;;;18.88;;
28760;SDS011;15917;50.014;8.352;2022-12-18T04:43:46;54.90;;;19.42;;
28760;SDS011;15917;50.014;8.352;2022-12-18T04:46:11;48.92;;;18.35;;
28760;SDS011;15917;50.014;8.352;2022-12-18T04:48:37;48.65;;;17.45;;
28760;SDS011;15917;50.014;8.352;2022-12-18T04:51:04;49.38;;;18.50;;
28760;SDS011;15917;50.014;8.352;2022-12-18T04:53:30;51.05;;;19.13;;
28760;SDS011;15917;50.014;8.352;2022-12-18T04:56:06;52.83;;;18.70;;
28760;SDS011;15917;50.014;8.352;2022-12-18T04:58:34;48.78;;;17.10;;
28760;SDS011;15917;50.014;8.352;2022-12-18T05:01:00;51.92;;;20.00;;
28760;SDS011;15917;50.014;8.352;2022-12-18T05:03:26;49.53;;;18.08;;
28760;SDS011;15917;50.014;8.352;2022-12-18T05:05:52;44.58;;;17.70;;
28760;SDS011;15917;50.014;8.352;2022-12-18T05:08:17;53.42;;;19.33;;
28760;SDS011;15917;50.014;8.352;2022-12-18T05:10:43;49.22;;;19.33;;
28760;SDS011;15917;50.014;8.352;2022-12-18T05:13:09;50.13;;;18.90;;
28760;SDS011;15917;50.014;8.352;2022-12-18T05:15:35;48.97;;;16.52;;
28760;SDS011;15917;50.014;8.352;2022-12-18T05:18:01;41.90;;;16.17;;
28760;SDS011;15917;50.014;8.352;2022-12-18T05:20:27;43.85;;;16.65;;
28760;SDS011;15917;50.014;8.352;2022-12-18T05:22:53;48.25;;;18.25;;
28760;SDS011;15917;50.014;8.352;2022-12-18T05:25:19;45.92;;;16.80;;
28760;SDS011;15917;50.014;8.352;2022-12-18T05:27:45;49.60;;;16.13;;
28760;SDS011;15917;50.014;8.352;2022-12-18T05:30:12;58.65;;;18.38;;
28760;SDS011;15917;50.014;8.352;2022-12-18T05:32:38;51.45;;;17.50;;
28760;SDS011;15917;50.014;8.352;2022-12-18T05:35:04;46.33;;;17.85;;
28760;SDS011;15917;50.014;8.352;2022-12-18T05:37:31;37.72;;;15.60;;
28760;SDS011;15917;50.014;8.352;2022-12-18T05:39:57;49.70;;;16.38;;
28760;SDS011;15917;50.014;8.352;2022-12-18T05:42:22;47.45;;;16.92;;
28760;SDS011;15917;50.014;8.352;2022-12-18T05:44:48;43.83;;;15.23;;
28760;SDS011;15917;50.014;8.352;2022-12-18T05:47:14;47.53;;;16.67;;
28760;SDS011;15917;50.014;8.352;2022-12-18T05:49:39;51.15;;;17.20;;
28760;SDS011;15917;50.014;8.352;2022-12-18T05:52:05;48.08;;;15.80;;
28760;SDS011;15917;50.014;8.352;2022-12-18T05:54:30;52.67;;;18.45;;
28760;SDS011;15917;50.014;8.352;2022-12-18T05:56:56;61.08;;;17.25;;
28760;SDS011;15917;50.014;8.352;2022-12-18T05:59:22;57.05;;;19.95;;
28760;SDS011;15917;50.014;8.352;2022-12-18T06:01:48;54.10;;;19.27;;
28760;SDS011;15917;50.014;8.352;2022-12-18T06:04:14;53.83;;;18.38;;
28760;SDS011;15917;50.014;8.352;2022-12-18T06:06:40;43.67;;;16.75;;
28760;SDS011;15917;50.014;8.352;2022-12-18T06:09:05;48.72;;;16.75;;
28760;SDS011;15917;50.014;8.352;2022-12-18T06:11:37;49.92;;;17.27;;
28760;SDS011;15917;50.014;8.352;2022-12-18T06:14:04;43.85;;;15.85;;
28760;SDS011;15917;50.014;8.352;2022-12-18T06:16:31;40.90;;;17.00;;
28760;SDS011;15917;50.014;8.352;2022-12-18T06:18:57;41.40;;;16.00;;
28760;SDS011;15917;50.014;8.352;2022-12-18T06:21:23;46.95;;;18.00;;
28760;SDS011;15917;50.014;8.352;2022-12-18T06:23:49;48.60;;;17.52;;
28760;SDS011;15917;50.014;8.352;2022-12-18T06:26:14;49.92;;;17.23;;
28760;SDS011;15917;50.014;8.352;2022-12-18T06:28:40;57.63;;;18.95;;
28760;SDS011;15917;50.014;8.352;2022-12-18T06:31:06;48.80;;;17.42;;
28760;SDS011;15917;50.014;8.352;2022-12-18T06:33:32;49.47;;;16.63;;
28760;SDS011;15917;50.014;8.352;2022-12-18T06:36:08;42.55;;;16.65;;
28760;SDS011;15917;50.014;8.352;2022-12-18T06:38:36;44.13;;;16.63;;
28760;SDS011;15917;50.014;8.352;2022-12-18T06:41:07;39.53;;;14.15;;
28760;SDS011;15917;50.014;8.352;2022-12-18T06:43:33;49.13;;;16.95;;
28760;SDS011;15917;50.014;8.352;2022-12-18T06:45:59;51.05;;;16.52;;
28760;SDS011;15917;50.014;8.352;2022-12-18T06:48:25;58.37;;;18.70;;
28760;SDS011;15917;50.014;8.352;2022-12-18T06:50:51;41.60;;;15.23;;
28760;SDS011;15917;50.014;8.352;2022-12-18T06:53:17;43.85;;;15.00;;
28760;SDS011;15917;50.014;8.352;2022-12-18T06:55:42;48.25;;;17.63;;
28760;SDS011;15917;50.014;8.352;2022-12-18T06:58:08;40.47;;;15.25;;
28760;SDS011;15917;50.014;8.352;2022-12-18T07:00:34;48.35;;;15.80;;
28760;SDS011;15917;50.014;8.352;2022-12-18T07:02:59;40.83;;;15.35;;
28760;SDS011;15917;50.014;8.352;2022-12-18T07:05:25;39.10;;;15.70;;
28760;SDS011;15917;50.014;8.352;2022-12-18T07:07:51;56.42;;;15.68;;
28760;SDS011;15917;50.014;8.352;2022-12-18T07:10:16;38.95;;;14.48;;
28760;SDS011;15917;50.014;8.352;2022-12-18T07:12:42;44.25;;;16.15;;
28760;SDS011;15917;50.014;8.352;2022-12-18T07:15:07;44.85;;;15.80;;
28760;SDS011;15917;50.014;8.352;2022-12-18T07:17:33;45.10;;;15.80;;
28760;SDS011;15917;50.014;8.352;2022-12-18T07:19:59;45.78;;;14.95;;
28760;SDS011;15917;50.014;8.352;2022-12-18T07:22:25;41.65;;;14.90;;
28760;SDS011;15917;50.014;8.352;2022-12-18T07:24:51;47.05;;;15.20;;
28760;SDS011;15917;50.014;8.352;2022-12-18T07:27:16;51.78;;;16.55;;
28760;SDS011;15917;50.014;8.352;2022-12-18T07:29:42;45.75;;;16.08;;
28760;SDS011;15917;50.014;8.352;2022-12-18T07:32:08;39.95;;;16.15;;
28760;SDS011;15917;50.014;8.352;2022-12-18T07:34:33;48.50;;;15.52;;
28760;SDS011;15917;50.014;8.352;2022-12-18T07:36:59;49.15;;;16.25;;
28760;SDS011;15917;50.014;8.352;2022-12-18T07:39:25;40.72;;;15.77;;
28760;SDS011;15917;50.014;8.352;2022-12-18T07:41:50;49.50;;;16.02;;
28760;SDS011;15917;50.014;8.352;2022-12-18T07:44:34;48.33;;;15.25;;
28760;SDS011;15917;50.014;8.352;2022-12-18T07:47:00;44.67;;;15.52;;
28760;SDS011;15917;50.014;8.352;2022-12-18T07:49:26;43.90;;;15.20;;
28760;SDS011;15917;50.014;8.352;2022-12-18T07:51:53;47.97;;;14.68;;
28760;SDS011;15917;50.014;8.352;2022-12-18T07:54:20;46.92;;;16.95;;
28760;SDS011;15917;50.014;8.352;2022-12-18T07:56:47;53.95;;;17.27;;
28760;SDS011;15917;50.014;8.352;2022-12-18T07:59:12;44.13;;;15.43;;
28760;SDS011;15917;50.014;8.352;2022-12-18T08:01:38;46.58;;;14.63;;
28760;SDS011;15917;50.014;8.352;2022-12-18T08:04:03;45.35;;;15.55;;
28760;SDS011;15917;50.014;8.352;2022-12-18T08:06:29;41.88;;;14.95;;
28760;SDS011;15917;50.014;8.352;2022-12-18T08:08:55;39.53;;;15.40;;
28760;SDS011;15917;50.014;8.352;2022-12-18T08:11:21;44.70;;;15.07;;
28760;SDS011;15917;50.014;8.352;2022-12-18T08:13:48;46.95;;;16.80;;
28760;SDS011;15917;50.014;8.352;2022-12-18T08:16:13;48.20;;;17.27;;
28760;SDS011;15917;50.014;8.352;2022-12-18T08:18:39;64.45;;;18.67;;
28760;SDS011;15917;50.014;8.352;2022-12-18T08:21:11;51.40;;;18.40;;
28760;SDS011;15917;50.014;8.352;2022-12-18T08:23:39;44.97;;;16.80;;
28760;SDS011;15917;50.014;8.352;2022-12-18T08:26:05;44.25;;;16.58;;
28760;SDS011;15917;50.014;8.352;2022-12-18T08:28:31;40.65;;;13.80;;
28760;SDS011;15917;50.014;8.352;2022-12-18T08:30:57;42.35;;;14.85;;
28760;SDS011;15917;50.014;8.352;2022-12-18T08:33:22;49.97;;;16.95;;
28760;SDS011;15917;50.014;8.352;2022-12-18T08:35:48;42.92;;;15.85;;
28760;SDS011;15917;50.014;8.352;2022-12-18T08:38:14;46.30;;;15.82;;
28760;SDS011;15917;50.014;8.352;2022-12-18T08:40:39;31.70;;;10.27;;
28760;SDS011;15917;50.014;8.352;2022-12-18T08:43:05;43.90;;;16.75;;
28760;SDS011;15917;50.014;8.352;2022-12-18T08:45:49;40.88;;;17.25;;
28760;SDS011;15917;50.014;8.352;2022-12-18T08:48:14;43.60;;;19.48;;
28760;SDS011;15917;50.014;8.352;2022-12-18T08:50:40;41.67;;;15.20;;
28760;SDS011;15917;50.014;8.352;2022-12-18T08:53:06;48.25;;;17.67;;
28760;SDS011;15917;50.014;8.352;2022-12-18T08:55:31;45.63;;;16.20;;
28760;SDS011;15917;50.014;8.352;2022-12-18T08:57:57;49.95;;;16.17;;
28760;SDS011;15917;50.014;8.352;2022-12-18T09:00:22;40.58;;;16.45;;
28760;SDS011;15917;50.014;8.352;2022-12-18T09:02:48;45.30;;;17.92;;
28760;SDS011;15917;50.014;8.352;2022-12-18T09:05:13;42.00;;;17.95;;
28760;SDS011;15917;50.014;8.352;2022-12-18T09:07:39;47.83;;;18.38;;
28760;SDS011;15917;50.014;8.352;2022-12-18T09:10:05;52.70;;;19.17;;
28760;SDS011;15917;50.014;8.352;2022-12-18T09:12:31;46.92;;;16.33;;
28760;SDS011;15917;50.014;8.352;2022-12-18T09:14:57;43.08;;;16.55;;
28760;SDS011;15917;50.014;8.352;2022-12-18T09:17:22;43.17;;;16.63;;
28760;SDS011;15917;50.014;8.352;2022-12-18T09:19:48;38.47;;;16.92;;
28760;SDS011;15917;50.014;8.352;2022-12-18T09:22:14;43.60;;;16.35;;
28760;SDS011;15917;50.014;8.352;2022-12-18T09:24:40;47.15;;;17.48;;
28760;SDS011;15917;50.014;8.352;2022-12-18T09:27:05;41.03;;;16.50;;
28760;SDS011;15917;50.014;8.352;2022-12-18T09:29:31;46.90;;;16.88;;
28760;SDS011;15917;50.014;8.352;2022-12-18T09:31:57;51.00;;;19.25;;
28760;SDS011;15917;50.014;8.352;2022-12-18T09:34:23;42.67;;;17.05;;
28760;SDS011;15917;50.014;8.352;2022-12-18T09:36:48;53.20;;;17.92;;
28760;SDS011;15917;50.014;8.352;2022-12-18T09:39:14;56.58;;;22.00;;
28760;SDS011;15917;50.014;8.352;2022-12-18T09:41:53;44.80;;;18.38;;
28760;SDS011;15917;50.014;8.352;2022-12-18T09:46:57;52.92;;;20.38;;
28760;SDS011;15917;50.014;8.352;2022-12-18T09:49:56;46.20;;;18.58;;
28760;SDS011;15917;50.014;8.352;2022-12-18T09:58:45;54.63;;;18.90;;
28760;SDS011;15917;50.014;8.352;2022-12-18T10:00:58;49.42;;;19.50;;
28760;SDS011;15917;50.014;8.352;2022-12-18T10:03:23;47.90;;;20.40;;
28760;SDS011;15917;50.014;8.352;2022-12-18T10:13:57;52.13;;;22.27;;
28760;SDS011;15917;50.014;8.352;2022-12-18T10:16:27;51.90;;;23.25;;
28760;SDS011;15917;50.014;8.352;2022-12-18T10:19:01;58.35;;;21.88;;
28760;SDS011;15917;50.014;8.352;2022-12-18T10:22:36;60.88;;;23.73;;
28760;SDS011;15917;50.014;8.352;2022-12-18T10:27:18;60.25;;;25.02;;
28760;SDS011;15917;50.014;8.352;2022-12-18T10:29:48;66.80;;;24.42;;
28760;SDS011;15917;50.014;8.352;2022-12-18T10:32:19;70.15;;;24.65;;
28760;SDS011;15917;50.014;8.352;2022-12-18T10:34:47;58.90;;;21.63;;
28760;SDS011;15917;50.014;8.352;2022-12-18T10:37:19;114.25;;;38.97;;
28760;SDS011;15917;50.014;8.352;2022-12-18T10:39:46;62.17;;;24.05;;
28760;SDS011;15917;50.014;8.352;2022-12-18T10:42:38;65.93;;;24.83;;
28760;SDS011;15917;50.014;8.352;2022-12-18T10:45:15;79.28;;;28.58;;
28760;SDS011;15917;50.014;8.352;2022-12-18T10:47:43;76.15;;;26.10;;
28760;SDS011;15917;50.014;8.352;2022-12-18T10:50:25;82.75;;;28.13;;
28760;SDS011;15917;50.014;8.352;2022-12-18T10:52:55;68.38;;;26.45;;
28760;SDS011;15917;50.014;8.352;2022-12-18T10:55:24;64.03;;;25.27;;
28760;SDS011;15917;50.014;8.352;2022-12-18T11:01:02;66.45;;;22.98;;
28760;SDS011;15917;50.014;8.352;2022-12-18T11:03:29;65.10;;;27.88;;
28760;SDS011;15917;50.014;8.352;2022-12-18T11:06:15;67.82;;;25.15;;
28760;SDS011;15917;50.014;8.352;2022-12-18T11:09:03;62.58;;;24.63;;
28760;SDS011;15917;50.014;8.352;2022-12-18T11:11:31;74.25;;;26.85;;
28760;SDS011;15917;50.014;8.352;2022-12-18T11:16:26;67.50;;;27.58;;
28760;SDS011;15917;50.014;8.352;2022-12-18T11:18:57;67.13;;;25.63;;
28760;SDS011;15917;50.014;8.352;2022-12-18T11:21:53;64.15;;;23.35;;
28760;SDS011;15917;50.014;8.352;2022-12-18T11:26:46;64.28;;;24.58;;
28760;SDS011;15917;50.014;8.352;2022-12-18T11:29:16;55.78;;;23.00;;
28760;SDS011;15917;50.014;8.352;2022-12-18T11:31:47;59.65;;;23.45;;
28760;SDS011;15917;50.014;8.352;2022-12-18T11:36:51;68.57;;;24.92;;
28760;SDS011;15917;50.014;8.352;2022-12-18T11:39:19;79.30;;;32.92;;
28760;SDS011;15917;50.014;8.352;2022-12-18T11:42:41;61.10;;;24.88;;
28760;SDS011;15917;50.014;8.352;2022-12-18T11:44:48;70.03;;;25.30;;
28760;SDS011;15917;50.014;8.352;2022-12-18T11:47:26;71.13;;;27.27;;
28760;SDS011;15917;50.014;8.352;2022-12-18T11:49:56;64.82;;;25.08;;
28760;SDS011;15917;50.014;8.352;2022-12-18T11:52:35;75.55;;;27.02;;
28760;SDS011;15917;50.014;8.352;2022-12-18T11:55:07;75.53;;;30.50;;
28760;SDS011;15917;50.014;8.352;2022-12-18T12:00:48;77.97;;;27.83;;
28760;SDS011;15917;50.014;8.352;2022-12-18T12:06:02;72.78;;;25.13;;
28760;SDS011;15917;50.014;8.352;2022-12-18T12:19:18;75.63;;;27.58;;
28760;SDS011;15917;50.014;8.352;2022-12-18T12:22:06;70.15;;;26.42;;
28760;SDS011;15917;50.014;8.352;2022-12-18T12:38:57;70.55;;;26.10;;
28760;SDS011;15917;50.014;8.352;2022-12-18T12:41:27;73.38;;;23.35;;
28760;SDS011;15917;50.014;8.352;2022-12-18T12:44:26;64.85;;;25.00;;
28760;SDS011;15917;50.014;8.352;2022-12-18T12:46:56;71.97;;;24.85;;
28760;SDS011;15917;50.014;8.352;2022-12-18T12:49:26;87.22;;;28.95;;
28760;SDS011;15917;50.014;8.352;2022-12-18T12:51:57;73.10;;;24.98;;
28760;SDS011;15917;50.014;8.352;2022-12-18T12:54:28;61.67;;;22.48;;
28760;SDS011;15917;50.014;8.352;2022-12-18T12:57:02;76.78;;;26.00;;
28760;SDS011;15917;50.014;8.352;2022-12-18T12:59:37;75.47;;;24.60;;
28760;SDS011;15917;50.014;8.352;2022-12-18T13:04:47;72.07;;;25.83;;
28760;SDS011;15917;50.014;8.352;2022-12-18T13:07:41;77.72;;;24.27;;
28760;SDS011;15917;50.014;8.352;2022-12-18T13:13:08;78.50;;;26.65;;
28760;SDS011;15917;50.014;8.352;2022-12-18T13:15:45;83.97;;;25.73;;
28760;SDS011;15917;50.014;8.352;2022-12-18T13:23:47;72.97;;;23.85;;
28760;SDS011;15917;50.014;8.352;2022-12-18T13:36:49;75.95;;;26.05;;
28760;SDS011;15917;50.014;8.352;2022-12-18T13:44:32;80.40;;;24.95;;
28760;SDS011;15917;50.014;8.352;2022-12-18T13:47:05;74.90;;;25.70;;
28760;SDS011;15917;50.014;8.352;2022-12-18T13:49:53;70.27;;;24.43;;
28760;SDS011;15917;50.014;8.352;2022-12-18T13:54:51;88.47;;;28.52;;
28760;SDS011;15917;50.014;8.352;2022-12-18T14:02:47;76.15;;;24.30;;
28760;SDS011;15917;50.014;8.352;2022-12-18T14:05:27;90.82;;;26.88;;
28760;SDS011;15917;50.014;8.352;2022-12-18T14:07:55;89.88;;;26.92;;
28760;SDS011;15917;50.014;8.352;2022-12-18T14:10:26;86.55;;;27.85;;
28760;SDS011;15917;50.014;8.352;2022-12-18T14:12:52;77.22;;;26.17;;
28760;SDS011;15917;50.014;8.352;2022-12-18T14:15:31;76.45;;;24.42;;
28760;SDS011;15917;50.014;8.352;2022-12-18T14:17:59;74.80;;;24.88;;
28760;SDS011;15917;50.014;8.352;2022-12-18T14:20:28;72.55;;;23.73;;
28760;SDS011;15917;50.014;8.352;2022-12-18T14:22:56;83.72;;;26.35;;
28760;SDS011;15917;50.014;8.352;2022-12-18T14:25:24;82.50;;;25.60;;
28760;SDS011;15917;50.014;8.352;2022-12-18T14:35:39;74.10;;;23.48;;
28760;SDS011;15917;50.014;8.352;2022-12-18T14:38:19;92.85;;;26.50;;
28760;SDS011;15917;50.014;8.352;2022-12-18T14:41:14;84.03;;;26.17;;
28760;SDS011;15917;50.014;8.352;2022-12-18T14:43:42;90.57;;;29.67;;
28760;SDS011;15917;50.014;8.352;2022-12-18T14:46:29;97.00;;;29.83;;
28760;SDS011;15917;50.014;8.352;2022-12-18T14:49:01;89.70;;;30.08;;
28760;SDS011;15917;50.014;8.352;2022-12-18T14:51:30;84.93;;;28.65;;
28760;SDS011;15917;50.014;8.352;2022-12-18T14:53:58;93.72;;;28.88;;
28760;SDS011;15917;50.014;8.352;2022-12-18T14:56:27;86.57;;;27.48;;
28760;SDS011;15917;50.014;8.352;2022-12-18T15:01:34;86.07;;;27.40;;
28760;SDS011;15917;50.014;8.352;2022-12-18T15:09:40;87.88;;;28.67;;
28760;SDS011;15917;50.014;8.352;2022-12-18T15:14:59;101.57;;;29.35;;
28760;SDS011;15917;50.014;8.352;2022-12-18T15:17:24;88.65;;;26.95;;
28760;SDS011;15917;50.014;8.352;2022-12-18T15:19:51;76.13;;;27.92;;
28760;SDS011;15917;50.014;8.352;2022-12-18T15:22:27;83.55;;;26.25;;
28760;SDS011;15917;50.014;8.352;2022-12-18T15:24:59;79.25;;;27.05;;
28760;SDS011;15917;50.014;8.352;2022-12-18T15:27:33;84.13;;;25.52;;
28760;SDS011;15917;50.014;8.352;2022-12-18T15:30:02;76.32;;;26.88;;
28760;SDS011;15917;50.014;8.352;2022-12-18T15:32:35;75.10;;;27.05;;
28760;SDS011;15917;50.014;8.352;2022-12-18T15:35:24;86.00;;;27.15;;
28760;SDS011;15917;50.014;8.352;2022-12-18T15:37:51;85.63;;;26.88;;
28760;SDS011;15917;50.014;8.352;2022-12-18T15:40:18;78.20;;;24.50;;
28760;SDS011;15917;50.014;8.352;2022-12-18T15:42:45;78.07;;;26.20;;
28760;SDS011;15917;50.014;8.352;2022-12-18T15:45:31;76.82;;;24.73;;
28760;SDS011;15917;50.014;8.352;2022-12-18T15:47:56;77.90;;;24.95;;
28760;SDS011;15917;50.014;8.352;2022-12-18T15:50:22;78.38;;;26.25;;
28760;SDS011;15917;50.014;8.352;2022-12-18T15:52:48;76.47;;;24.10;;
28760;SDS011;15917;50.014;8.352;2022-12-18T15:55:17;73.53;;;24.08;;
28760;SDS011;15917;50.014;8.352;2022-12-18T15:58:03;66.10;;;23.35;;
28760;SDS011;15917;50.014;8.352;2022-12-18T16:00:30;74.88;;;24.25;;
28760;SDS011;15917;50.014;8.352;2022-12-18T16:02:56;78.93;;;26.38;;
28760;SDS011;15917;50.014;8.352;2022-12-18T16:05:22;86.72;;;26.55;;
28760;SDS011;15917;50.014;8.352;2022-12-18T16:07:48;71.85;;;23.63;;
28760;SDS011;15917;50.014;8.352;2022-12-18T16:10:14;69.55;;;24.55;;
28760;SDS011;15917;50.014;8.352;2022-12-18T16:12:40;70.88;;;23.23;;
28760;SDS011;15917;50.014;8.352;2022-12-18T16:15:06;80.88;;;23.85;;
28760;SDS011;15917;50.014;8.352;2022-12-18T16:17:33;75.28;;;26.52;;
28760;SDS011;15917;50.014;8.352;2022-12-18T16:19:58;73.20;;;24.95;;
28760;SDS011;15917;50.014;8.352;2022-12-18T16:22:25;71.57;;;26.08;;
28760;SDS011;15917;50.014;8.352;2022-12-18T16:24:52;74.05;;;27.13;;
28760;SDS011;15917;50.014;8.352;2022-12-18T16:27:19;72.73;;;26.03;;
28760;SDS011;15917;50.014;8.352;2022-12-18T16:29:45;75.20;;;24.40;;
28760;SDS011;15917;50.014;8.352;2022-12-18T16:32:13;103.93;;;30.65;;
28760;SDS011;15917;50.014;8.352;2022-12-18T16:34:46;97.93;;;33.67;;
28760;SDS011;15917;50.014;8.352;2022-12-18T16:37:12;87.53;;;29.60;;
28760;SDS011;15917;50.014;8.352;2022-12-18T16:39:39;84.70;;;28.42;;
28760;SDS011;15917;50.014;8.352;2022-12-18T16:42:08;133.45;;;43.47;;
28760;SDS011;15917;50.014;8.352;2022-12-18T16:44:41;91.95;;;28.25;;
28760;SDS011;15917;50.014;8.352;2022-12-18T16:47:07;85.40;;;28.88;;
28760;SDS011;15917;50.014;8.352;2022-12-18T16:49:33;88.50;;;29.10;;
28760;SDS011;15917;50.014;8.352;2022-12-18T16:51:59;97.22;;;37.22;;
28760;SDS011;15917;50.014;8.352;2022-12-18T16:54:27;85.10;;;31.90;;
28760;SDS011;15917;50.014;8.352;2022-12-18T16:56:54;82.00;;;30.42;;
28760;SDS011;15917;50.014;8.352;2022-12-18T16:59:20;87.97;;;31.23;;